Time;durP1;ratioP1;P1;durP2;ratioP2;P2;SDS_P1;SDS_P2;PMS_P1;PMS_P2;Temp;Humidity;BMP_temperature;BMP_pressure;BME280_temperature;BME280_humidity;BME280_pressure;Samples;Min_cycle;Max_cycle;Signal;HPM_P1;HPM_P2
2022/12/04 00:01:14;;;;;;;70.63;28.02;;;;;;;-1.15;100.00;101395.09;5049616;28;20049;-74
2022/12/04 00:03:41;;;;;;;68.47;26.02;;;;;;;-1.14;100.00;101396.84;5045329;28;20174;-73
2022/12/04 00:06:17;;;;;;;63.13;27.00;;;;;;;-1.14;100.00;101390.84;5067115;28;20028;-72
2022/12/04 00:08:45;;;;;;;67.22;30.67;;;;;;;-1.14;100.00;101390.84;5043667;28;20044;-76
2022/12/04 00:11:15;;;;;;;65.30;30.17;;;;;;;-1.15;100.00;101386.50;5047776;28;20047;-74
2022/12/04 00:13:41;;;;;;;60.53;27.00;;;;;;;-1.17;100.00;101383.88;5046596;28;20103;-75
2022/12/04 00:16:11;;;;;;;69.53;30.83;;;;;;;-1.17;100.00;101387.31;5027147;28;20068;-75
2022/12/04 00:18:38;;;;;;;57.22;26.63;;;;;;;-1.18;100.00;101382.09;5053954;28;20178;-73
2022/12/04 00:21:07;;;;;;;72.03;29.63;;;;;;;-1.17;100.00;101378.72;5069267;28;20055;-75
2022/12/04 00:23:35;;;;;;;65.57;28.77;;;;;;;-1.20;100.00;101370.84;5046859;28;20152;-75
2022/12/04 00:26:08;;;;;;;56.63;22.95;;;;;;;-1.19;100.00;101372.63;5065230;28;20128;-75
2022/12/04 00:28:35;;;;;;;61.75;25.17;;;;;;;-1.20;100.00;101376.88;5029811;28;20659;-74
2022/12/04 00:31:10;;;;;;;64.07;27.23;;;;;;;-1.16;100.00;101388.22;5044256;28;20530;-75
2022/12/04 00:33:38;;;;;;;65.65;28.30;;;;;;;-1.18;100.00;101380.41;5046127;28;20501;-75
2022/12/04 00:36:09;;;;;;;56.30;22.88;;;;;;;-1.15;100.00;101389.06;5071739;28;20036;-76
2022/12/04 00:38:37;;;;;;;59.92;26.92;;;;;;;-1.16;100.00;101380.50;5034021;28;20127;-74
2022/12/04 00:41:04;;;;;;;63.53;24.67;;;;;;;-1.18;100.00;101388.09;5049221;28;20044;-75
2022/12/04 00:43:32;;;;;;;57.55;25.40;;;;;;;-1.17;100.00;101376.16;5057856;28;20381;-76
2022/12/04 00:45:59;;;;;;;58.13;29.13;;;;;;;-1.15;100.00;101371.09;5047165;28;20058;-75
2022/12/04 00:48:26;;;;;;;64.55;25.92;;;;;;;-1.18;100.00;101374.38;5052444;28;20047;-74
2022/12/04 00:50:57;;;;;;;64.68;27.30;;;;;;;-1.19;100.00;101372.63;5047328;28;20132;-75
2022/12/04 00:53:24;;;;;;;59.00;26.30;;;;;;;-1.19;100.00;101368.38;5053295;28;20045;-75
2022/12/04 00:55:50;;;;;;;63.42;27.48;;;;;;;-1.18;100.00;101371.81;5054216;28;20047;-73
2022/12/04 00:58:17;;;;;;;61.13;25.52;;;;;;;-1.14;100.00;101368.59;5053157;28;20075;-75
2022/12/04 01:00:43;;;;;;;65.57;29.55;;;;;;;-1.12;100.00;101369.56;5051734;28;20439;-75
2022/12/04 01:03:10;;;;;;;59.83;25.48;;;;;;;-1.12;100.00;101371.22;5048211;28;20652;-74
2022/12/04 01:05:45;;;;;;;67.18;27.83;;;;;;;-1.14;100.00;101363.47;5052159;28;20051;-74
2022/12/04 01:08:13;;;;;;;64.10;28.58;;;;;;;-1.14;100.00;101368.59;5052014;28;20045;-74
2022/12/04 01:10:41;;;;;;;74.20;27.85;;;;;;;-1.16;100.00;101367.66;5051954;28;20040;-74
2022/12/04 01:13:08;;;;;;;69.50;28.65;;;;;;;-1.16;100.00;101370.22;5050739;28;20033;-75
2022/12/04 01:15:40;;;;;;;67.28;27.77;;;;;;;-1.17;100.00;101368.44;5048050;28;20087;-75
2022/12/04 01:18:06;;;;;;;66.28;29.90;;;;;;;-1.19;100.00;101362.34;5045222;28;20041;-75
2022/12/04 01:20:33;;;;;;;72.45;30.38;;;;;;;-1.19;100.00;101359.78;5058909;28;20110;-75
2022/12/04 01:23:00;;;;;;;76.72;29.42;;;;;;;-1.18;100.00;101366.69;5071346;28;20040;-75
2022/12/04 01:25:27;;;;;;;65.25;27.17;;;;;;;-1.16;100.00;101362.50;5033089;28;20056;-74
2022/12/04 01:27:53;;;;;;;65.60;29.67;;;;;;;-1.12;100.00;101360.97;5049791;28;20566;-77
2022/12/04 01:30:20;;;;;;;60.65;26.55;;;;;;;-1.10;100.00;101367.94;5051419;28;20044;-76
2022/12/04 01:32:46;;;;;;;68.28;28.27;;;;;;;-1.08;100.00;101353.50;5056430;28;20045;-75
2022/12/04 01:35:13;;;;;;;68.63;30.42;;;;;;;-1.13;100.00;101360.09;5031255;28;20060;-74
2022/12/04 01:37:40;;;;;;;70.72;28.17;;;;;;;-1.18;100.00;101351.25;5042175;28;20130;-74
2022/12/04 01:40:07;;;;;;;60.30;26.65;;;;;;;-1.15;100.00;101355.69;5051033;28;20491;-74
2022/12/04 01:42:34;;;;;;;64.22;26.90;;;;;;;-1.17;100.00;101353.91;5067144;28;20666;-73
2022/12/04 01:45:42;;;;;;;68.10;28.45;;;;;;;-1.17;100.00;101355.59;5045283;28;20036;-73
2022/12/04 01:48:30;;;;;;;61.58;28.65;;;;;;;-1.16;100.00;101352.22;5068080;28;20163;-72
2022/12/04 01:51:15;;;;;;;64.97;27.05;;;;;;;-1.16;100.00;101349.66;5047943;28;20041;-73
2022/12/04 01:53:43;;;;;;;;;;;;;;;-1.15;100.00;101351.41;5046645;28;20037;-73
2022/12/04 01:56:10;;;;;;;63.03;26.73;;;;;;;-1.18;100.00;101349.56;5063412;28;19982;-75
2022/12/04 01:58:44;;;;;;;65.03;26.73;;;;;;;-1.16;100.00;101352.22;5047657;28;20420;-76
2022/12/04 02:01:11;;;;;;;;;;;;;;;-1.17;100.00;101348.75;5044662;28;20045;-77
2022/12/04 02:03:38;;;;;;;64.85;24.83;;;;;;;-1.17;100.00;101359.03;5044884;28;19982;-75
2022/12/04 02:06:05;;;;;;;59.55;24.45;;;;;;;-1.18;100.00;101359.84;5046878;28;20043;-75
2022/12/04 02:08:34;;;;;;;62.08;26.45;;;;;;;-1.18;100.00;101361.53;5035315;28;20044;-73
2022/12/04 02:11:12;;;;;;;63.70;25.63;;;;;;;-1.18;100.00;101351.25;5047092;28;20044;-73
2022/12/04 02:13:52;;;;;;;53.28;22.98;;;;;;;-1.16;100.00;101349.66;5045660;28;20394;-75
2022/12/04 02:16:45;;;;;;;56.85;25.98;;;;;;;-1.15;100.00;101350.53;5043022;28;20048;-73
2022/12/04 02:19:50;;;;;;;55.95;24.48;;;;;;;-1.15;100.00;101337.69;5046680;28;20520;-74
2022/12/04 02:23:06;;;;;;;63.10;26.65;;;;;;;-1.17;100.00;101345.31;5061928;28;20095;-74
2022/12/04 02:26:23;;;;;;;56.85;23.05;;;;;;;-1.22;100.00;101341.66;5051618;28;20063;-74
2022/12/04 02:29:20;;;;;;;59.08;22.13;;;;;;;-1.24;100.00;101340.66;5045908;28;20051;-73
2022/12/04 02:32:09;;;;;;;54.58;24.60;;;;;;;-1.28;100.00;101334.50;5069952;28;20039;-75
2022/12/04 02:34:51;;;;;;;51.83;21.52;;;;;;;-1.29;100.00;101325.03;5046386;28;20083;-75
2022/12/04 02:37:30;;;;;;;47.45;20.05;;;;;;;-1.27;100.00;101332.81;5055554;28;20372;-73
2022/12/04 02:40:08;;;;;;;55.13;22.05;;;;;;;-1.25;100.00;101333.75;5054900;28;20739;-75
2022/12/04 02:42:42;;;;;;;58.67;22.25;;;;;;;-1.24;100.00;101332.97;5051860;28;20475;-76
2022/12/04 02:45:14;;;;;;;54.95;23.73;;;;;;;-1.24;100.00;101332.97;5044060;28;20411;-75
2022/12/04 02:47:44;;;;;;;56.03;21.70;;;;;;;-1.25;100.00;101326.97;5055193;28;20040;-75
2022/12/04 02:50:16;;;;;;;58.53;21.33;;;;;;;-1.22;100.00;101323.66;5045662;28;20052;-74
2022/12/04 02:52:50;;;;;;;52.20;22.73;;;;;;;-1.19;100.00;101329.84;5054932;28;20056;-73
2022/12/04 02:55:24;;;;;;;50.47;22.77;;;;;;;-1.20;100.00;101317.78;5037233;28;20056;-76
2022/12/04 02:57:57;;;;;;;50.58;21.98;;;;;;;-1.18;100.00;101313.59;5051335;28;20052;-74
2022/12/04 03:00:23;;;;;;;58.42;23.80;;;;;;;-1.16;100.00;101316.28;5054377;28;20135;-75
2022/12/04 03:03:06;;;;;;;45.80;21.23;;;;;;;-1.16;100.00;101321.41;5067359;28;20052;-75
2022/12/04 03:05:44;;;;;;;47.33;20.25;;;;;;;-1.17;100.00;101319.63;5071223;28;20045;-77
2022/12/04 03:08:21;;;;;;;53.75;22.83;;;;;;;-1.18;100.00;101316.16;5052828;28;20124;-75
2022/12/04 03:10:56;;;;;;;57.28;24.77;;;;;;;-1.17;100.00;101325.66;5050375;28;20040;-75
2022/12/04 03:13:36;;;;;;;46.85;21.02;;;;;;;-1.16;100.00;101323.97;5039566;28;20407;-73
2022/12/04 03:16:13;;;;;;;47.33;20.92;;;;;;;-1.15;100.00;101322.28;5041034;28;20047;-75
2022/12/04 03:18:47;;;;;;;50.40;22.02;;;;;;;-1.15;100.00;101325.72;5065320;28;20051;-75
2022/12/04 03:21:21;;;;;;;48.42;21.23;;;;;;;-1.13;100.00;101320.66;5052720;28;20044;-75
2022/12/04 03:23:59;;;;;;;47.72;20.05;;;;;;;-1.11;100.00;101325.06;5046194;28;20134;-76
2022/12/04 03:26:34;;;;;;;56.33;21.65;;;;;;;-1.09;100.00;101328.59;5072188;28;20074;-75
2022/12/04 03:29:25;;;;;;;45.00;21.50;;;;;;;-1.09;100.00;101322.59;5069975;28;20051;-76
2022/12/04 03:32:03;;;;;;;47.17;19.67;;;;;;;-1.09;100.00;101323.44;5052279;28;20044;-75
2022/12/04 03:34:57;;;;;;;58.00;22.45;;;;;;;-1.09;100.00;101320.00;5069802;28;20044;-75
2022/12/04 03:37:37;;;;;;;52.75;21.25;;;;;;;-1.08;100.00;101322.66;5052518;28;20040;-76
2022/12/04 03:40:23;;;;;;;50.45;24.27;;;;;;;-1.09;100.00;101325.16;5044673;28;20052;-74
2022/12/04 03:43:00;;;;;;;53.20;21.92;;;;;;;-1.10;100.00;101316.53;5051618;28;20040;-75
2022/12/04 03:45:52;;;;;;;57.92;23.77;;;;;;;-1.13;100.00;101306.13;5065445;28;20456;-74
2022/12/04 03:48:49;;;;;;;49.92;22.00;;;;;;;-1.13;100.00;101311.25;5050988;28;20094;-75
2022/12/04 03:51:54;;;;;;;47.13;20.42;;;;;;;-1.13;100.00;101311.25;5051416;28;20428;-75
2022/12/04 03:54:30;;;;;;;53.75;22.92;;;;;;;-1.11;100.00;101312.22;5066918;28;20439;-75
2022/12/04 03:57:11;;;;;;;54.20;24.33;;;;;;;-1.09;100.00;101304.59;5049398;28;20038;-75
2022/12/04 03:59:45;;;;;;;56.72;23.08;;;;;;;-1.09;100.00;101302.91;5047018;28;20041;-73
2022/12/04 04:02:16;;;;;;;;;;;;;;;-1.08;100.00;101304.66;5048715;28;20128;-76
2022/12/04 04:04:48;;;;;;;57.70;23.67;;;;;;;-1.04;100.00;101321.13;5039028;28;19921;-73
2022/12/04 04:07:30;;;;;;;47.65;21.20;;;;;;;-1.02;100.00;101311.78;5066385;28;20636;-73
2022/12/04 04:10:05;;;;;;;58.50;23.77;;;;;;;-1.01;100.00;101316.13;5066828;28;20052;-73
2022/12/04 04:12:38;;;;;;;54.20;23.85;;;;;;;-1.00;100.00;101323.91;5050927;28;20041;-74
2022/12/04 04:26:42;;;;;;;59.95;24.88;;;;;;;-0.96;100.00;101319.81;5046409;28;20050;-73
2022/12/04 04:29:10;;;;;;;54.75;26.40;;;;;;;-0.94;100.00;101314.72;5053496;28;20041;-74
2022/12/04 04:31:52;;;;;;;55.42;25.00;;;;;;;-0.96;100.00;101322.38;5044300;28;20064;-74
2022/12/04 04:34:35;;;;;;;59.33;26.67;;;;;;;-0.96;100.00;101321.50;5046192;28;20044;-76
2022/12/04 04:37:26;;;;;;;60.08;24.70;;;;;;;-0.95;100.00;101320.66;5061058;28;20033;-75
2022/12/04 04:40:11;;;;;;;54.03;26.27;;;;;;;-0.96;100.00;101314.66;5047830;28;20041;-73
2022/12/04 04:43:05;;;;;;;55.95;25.65;;;;;;;-0.94;100.00;101319.88;5070006;28;20037;-75
2022/12/04 04:46:12;;;;;;;58.35;25.40;;;;;;;-0.91;100.00;101309.72;5034413;28;20055;-75
2022/12/04 04:48:48;;;;;;;59.42;27.75;;;;;;;-0.89;100.00;101305.56;5064031;28;20045;-73
2022/12/04 04:51:15;;;;;;;64.47;29.50;;;;;;;-0.87;100.00;101309.09;5036432;28;20056;-75
2022/12/04 04:53:54;;;;;;;57.15;26.90;;;;;;;-0.87;100.00;101317.66;5043620;28;20036;-75
2022/12/04 04:56:22;;;;;;;60.30;25.30;;;;;;;-0.87;100.00;101319.38;5047652;28;20095;-74
2022/12/04 04:58:49;;;;;;;57.33;26.55;;;;;;;-0.86;100.00;101316.88;5047061;28;20049;-74
2022/12/04 05:01:20;;;;;;;62.25;28.52;;;;;;;-0.86;100.00;101316.88;5067589;28;20051;-73
2022/12/04 05:03:47;;;;;;;63.47;27.48;;;;;;;-0.85;100.00;101321.22;5054404;28;20068;-73
2022/12/04 05:06:13;;;;;;;56.35;26.25;;;;;;;-0.84;100.00;101316.94;5046135;28;20041;-73
2022/12/04 05:08:40;;;;;;;59.80;28.02;;;;;;;-0.84;100.00;101314.38;5045075;28;20045;-74
2022/12/04 05:11:13;;;;;;;61.20;28.15;;;;;;;-0.79;100.00;101317.16;5034099;28;20586;-72
2022/12/04 05:13:40;;;;;;;67.57;27.60;;;;;;;-0.78;100.00;101318.91;5051704;28;20044;-75
2022/12/04 05:16:11;;;;;;;54.60;26.20;;;;;;;-0.77;100.00;101324.16;5051094;28;20040;-73
2022/12/04 05:18:38;;;;;;;59.40;26.52;;;;;;;-0.79;100.00;101324.88;5048688;28;20080;-73
2022/12/04 05:21:14;;;;;;;60.90;26.25;;;;;;;-0.77;100.00;101325.81;5064946;28;20148;-74
2022/12/04 05:23:41;;;;;;;82.80;29.38;;;;;;;-0.77;100.00;101323.25;5045484;28;20041;-75
2022/12/04 05:26:08;;;;;;;61.95;27.67;;;;;;;-0.76;100.00;101325.88;5069199;28;20064;-75
2022/12/04 05:28:34;;;;;;;56.63;27.58;;;;;;;-0.76;100.00;101328.47;5038800;28;20049;-73
2022/12/04 05:31:03;;;;;;;60.53;27.10;;;;;;;-0.74;100.00;101328.56;5072683;28;20479;-72
2022/12/04 05:33:30;;;;;;;60.72;27.98;;;;;;;-0.71;100.00;101329.56;5042610;28;20073;-74
2022/12/04 05:36:06;;;;;;;55.00;24.85;;;;;;;-0.69;100.00;101329.66;5030228;28;20132;-73
2022/12/04 05:38:35;;;;;;;52.78;25.88;;;;;;;-0.65;100.00;101328.09;5028585;28;20064;-75
2022/12/04 05:41:05;;;;;;;61.63;27.55;;;;;;;-0.62;100.00;101333.41;5051745;28;20494;-73
2022/12/04 05:43:32;;;;;;;58.67;27.10;;;;;;;-0.63;100.00;101327.34;5060757;28;20368;-74
2022/12/04 05:46:07;;;;;;;61.20;27.02;;;;;;;-0.63;100.00;101318.78;5050703;28;20128;-73
2022/12/04 05:48:35;;;;;;;61.38;26.10;;;;;;;-0.61;100.00;101319.72;5034640;28;20383;-73
2022/12/04 05:51:07;;;;;;;54.00;26.00;;;;;;;-0.60;100.00;101327.53;5068801;28;20051;-73
2022/12/04 05:53:33;;;;;;;64.38;28.50;;;;;;;-0.59;100.00;101324.13;5045022;28;20044;-73
2022/12/04 05:56:03;;;;;;;59.25;26.67;;;;;;;-0.59;100.00;101326.69;5050457;28;20044;-75
2022/12/04 05:58:29;;;;;;;63.70;29.27;;;;;;;-0.57;100.00;101319.06;5043262;28;20041;-75
2022/12/04 06:00:56;;;;;;;61.08;24.73;;;;;;;-0.56;100.00;101320.81;5039982;28;20041;-72
2022/12/04 06:03:23;;;;;;;54.10;26.52;;;;;;;-0.58;100.00;101328.47;5046558;28;20044;-75
2022/12/04 06:05:49;;;;;;;49.20;25.30;;;;;;;-0.57;100.00;101326.78;5068792;28;20047;-74
2022/12/04 06:08:16;;;;;;;60.05;27.38;;;;;;;-0.58;100.00;101325.88;5053965;28;20620;-73
2022/12/04 06:10:42;;;;;;;59.08;26.05;;;;;;;-0.56;100.00;101320.81;5069220;28;20040;-74
2022/12/04 06:13:09;;;;;;;55.22;24.90;;;;;;;-0.52;100.00;101320.16;5049168;28;20041;-73
2022/12/04 06:15:40;;;;;;;60.67;26.92;;;;;;;-0.51;100.00;101325.38;5051558;28;20037;-73
2022/12/04 06:18:07;;;;;;;61.30;27.13;;;;;;;-0.48;100.00;101323.75;5047155;28;20052;-73
2022/12/04 06:20:34;;;;;;;64.05;26.98;;;;;;;-0.47;100.00;101320.38;5050456;28;20101;-73
2022/12/04 06:23:01;;;;;;;54.72;25.23;;;;;;;-0.48;100.00;101339.19;5048028;28;20120;-73
2022/12/04 06:25:27;;;;;;;53.55;25.75;;;;;;;-0.51;100.00;101325.38;5052140;28;20056;-73
2022/12/04 06:27:54;;;;;;;54.80;24.75;;;;;;;-0.54;100.00;101329.50;5032810;28;20090;-73
2022/12/04 06:30:21;;;;;;;53.63;26.98;;;;;;;-0.54;100.00;101332.94;5029682;28;20057;-73
2022/12/04 06:32:47;;;;;;;55.08;27.23;;;;;;;-0.55;100.00;101332.88;5051348;28;20477;-74
2022/12/04 06:35:14;;;;;;;71.88;27.70;;;;;;;-0.55;100.00;101327.72;5036075;28;20040;-73
2022/12/04 06:37:40;;;;;;;49.72;25.33;;;;;;;-0.55;100.00;101328.63;5032497;28;20096;-73
2022/12/04 06:40:09;;;;;;;49.05;25.98;;;;;;;-0.56;100.00;101328.53;5065559;28;20079;-75
2022/12/04 06:42:36;;;;;;;56.55;27.90;;;;;;;-0.57;100.00;101327.66;5067862;28;20040;-76
2022/12/04 06:45:03;;;;;;;56.67;25.67;;;;;;;-0.55;100.00;101336.34;5057599;28;20121;-73
2022/12/04 06:47:29;;;;;;;53.20;25.75;;;;;;;-0.54;100.00;101343.22;5050299;28;20487;-73
2022/12/04 06:49:56;;;;;;;56.53;28.20;;;;;;;-0.53;100.00;101341.56;5064472;28;20513;-74
2022/12/04 06:52:22;;;;;;;54.15;24.33;;;;;;;-0.51;100.00;101343.38;5045150;28;20069;-77
2022/12/04 06:54:49;;;;;;;48.78;25.25;;;;;;;-0.51;100.00;101337.34;5047280;28;20143;-74
2022/12/04 06:57:15;;;;;;;59.35;27.75;;;;;;;-0.50;100.00;101344.25;5042940;28;20137;-75
2022/12/04 06:59:42;;;;;;;54.92;24.95;;;;;;;-0.50;100.00;101344.25;5050517;28;20044;-73
2022/12/04 07:02:09;;;;;;;55.47;24.98;;;;;;;-0.48;100.00;101339.19;5049745;28;20036;-75
2022/12/04 07:04:36;;;;;;;51.70;24.02;;;;;;;-0.46;100.00;101346.16;5045206;28;20041;-75
2022/12/04 07:07:02;;;;;;;49.85;24.48;;;;;;;-0.45;100.00;101344.50;5065153;28;20215;-75
2022/12/04 07:09:29;;;;;;;52.05;23.52;;;;;;;-0.45;100.00;101347.94;5051743;28;20040;-74
2022/12/04 07:11:55;;;;;;;50.83;26.63;;;;;;;-0.43;100.00;101341.19;5062010;28;20157;-73
2022/12/04 07:14:22;;;;;;;53.53;25.13;;;;;;;-0.43;100.00;101341.19;5046160;28;20041;-73
2022/12/04 07:16:48;;;;;;;48.28;25.08;;;;;;;-0.45;100.00;101345.34;5049220;28;20041;-74
2022/12/04 07:19:14;;;;;;;51.05;26.40;;;;;;;-0.43;100.00;101343.75;5023837;28;20067;-73
2022/12/04 07:21:42;;;;;;;50.55;26.38;;;;;;;-0.43;100.00;101341.19;5053139;28;20032;-73
2022/12/04 07:24:15;;;;;;;51.97;28.10;;;;;;;-0.40;100.00;101349.03;5052052;28;20051;-75
2022/12/04 07:26:42;;;;;;;48.08;22.05;;;;;;;-0.40;100.00;101343.88;5029797;28;20049;-75
2022/12/04 07:29:09;;;;;;;53.53;25.50;;;;;;;-0.39;100.00;101345.66;5054752;28;20043;-73
2022/12/04 07:31:36;;;;;;;53.78;26.10;;;;;;;-0.40;100.00;101337.88;5046815;28;20093;-75
2022/12/04 07:34:02;;;;;;;48.60;23.33;;;;;;;-0.40;100.00;101340.44;5065734;28;20577;-75
2022/12/04 07:36:29;;;;;;;54.38;25.67;;;;;;;-0.40;100.00;101337.88;5073959;28;20368;-84
2022/12/04 07:38:56;;;;;;;48.90;23.30;;;;;;;-0.40;100.00;101331.03;5050470;28;20398;-76
2022/12/04 07:41:23;;;;;;;48.00;24.33;;;;;;;-0.40;100.00;101331.03;5052197;28;20045;-75
2022/12/04 07:43:49;;;;;;;51.38;23.63;;;;;;;-0.40;100.00;101330.16;5050524;28;20040;-75
2022/12/04 07:46:26;;;;;;;49.20;25.20;;;;;;;-0.39;100.00;101331.88;5047385;28;20080;-73
2022/12/04 07:48:58;;;;;;;54.70;25.55;;;;;;;-0.38;100.00;101336.22;5053873;28;20545;-73
2022/12/04 07:51:29;;;;;;;52.88;24.38;;;;;;;-0.37;100.00;101332.84;5048815;28;20055;-73
2022/12/04 07:53:57;;;;;;;46.65;22.33;;;;;;;-0.37;100.00;101338.88;5043593;28;20100;-74
2022/12/04 07:56:24;;;;;;;47.83;24.13;;;;;;;-0.34;100.00;101341.59;5047793;28;20047;-75
2022/12/04 07:58:50;;;;;;;48.78;22.38;;;;;;;-0.36;100.00;101344.91;5048734;28;20049;-75
2022/12/04 08:01:21;;;;;;;47.45;24.42;;;;;;;-0.38;100.00;101347.41;5070413;28;20053;-75
2022/12/04 08:03:51;;;;;;;52.97;23.23;;;;;;;-0.39;100.00;101343.06;5068858;28;20044;-75
2022/12/04 08:06:21;;;;;;;50.83;24.73;;;;;;;-0.40;100.00;101349.03;5050072;28;20423;-73
2022/12/04 08:08:49;;;;;;;56.05;24.00;;;;;;;-0.39;100.00;101345.66;5026557;28;20048;-74
2022/12/04 08:11:21;;;;;;;45.28;22.08;;;;;;;-0.38;100.00;101338.81;5049841;28;20054;-73
2022/12/04 08:13:48;;;;;;;50.60;23.48;;;;;;;-0.38;100.00;101334.56;5046357;28;20119;-72
2022/12/04 08:16:15;;;;;;;49.65;25.67;;;;;;;-0.38;100.00;101337.13;5059356;28;20509;-76
2022/12/04 08:18:45;;;;;;;49.25;26.55;;;;;;;-0.38;100.00;101343.94;5053449;28;20047;-75
2022/12/04 08:21:20;;;;;;;55.67;25.17;;;;;;;-0.37;100.00;101343.16;5069361;28;20047;-75
2022/12/04 08:23:49;;;;;;;56.70;25.20;;;;;;;-0.37;100.00;101338.00;5053817;28;20055;-73
2022/12/04 08:26:16;;;;;;;52.53;24.48;;;;;;;-0.39;100.00;101344.75;5029596;28;20096;-75
2022/12/04 08:28:43;;;;;;;58.53;27.42;;;;;;;-0.41;100.00;101342.13;5071416;28;20045;-74
2022/12/04 08:31:25;;;;;;;49.80;24.77;;;;;;;-0.42;100.00;101339.47;5053331;28;20037;-74
2022/12/04 08:33:55;;;;;;;57.72;26.52;;;;;;;-0.39;100.00;101337.03;5050034;28;20124;-74
2022/12/04 08:36:23;;;;;;;74.75;31.70;;;;;;;-0.36;100.00;101343.22;5052534;28;20076;-74
2022/12/04 08:38:51;;;;;;;52.40;23.52;;;;;;;-0.38;100.00;101346.53;5036782;28;20426;-74
2022/12/04 08:41:21;;;;;;;48.70;25.10;;;;;;;-0.36;100.00;101335.50;5048731;28;20664;-73
2022/12/04 08:43:48;;;;;;;52.53;24.70;;;;;;;-0.35;100.00;101342.41;5051520;28;20149;-75
2022/12/04 08:46:18;;;;;;;54.20;27.08;;;;;;;-0.32;100.00;101333.09;5046506;28;20158;-74
2022/12/04 08:48:45;;;;;;;56.42;26.85;;;;;;;-0.32;100.00;101343.38;5070636;28;20036;-76
2022/12/04 08:51:19;;;;;;;56.13;25.60;;;;;;;-0.31;100.00;101337.38;5050781;28;20048;-75
2022/12/04 08:53:46;;;;;;;54.05;24.38;;;;;;;-0.34;100.00;101333.88;5042447;28;20063;-75
2022/12/04 08:56:12;;;;;;;70.80;34.00;;;;;;;-0.30;100.00;101336.59;5048370;28;20048;-74
2022/12/04 08:58:39;;;;;;;54.28;25.25;;;;;;;-0.26;100.00;101335.91;5048661;28;20456;-75
2022/12/04 09:01:13;;;;;;;48.08;24.95;;;;;;;-0.26;100.00;101334.25;5045249;28;20037;-75
2022/12/04 09:03:40;;;;;;;51.10;24.25;;;;;;;-0.25;100.00;101336.00;5046222;28;20041;-73
2022/12/04 09:06:09;;;;;;;55.53;25.65;;;;;;;-0.24;100.00;101335.19;5051460;28;20166;-75
2022/12/04 09:08:36;;;;;;;57.03;27.50;;;;;;;-0.25;100.00;101332.53;5045274;28;20040;-75
2022/12/04 09:11:16;;;;;;;57.13;26.35;;;;;;;-0.25;100.00;101335.09;5050892;28;20037;-73
2022/12/04 09:13:44;;;;;;;46.05;24.48;;;;;;;-0.25;100.00;101337.69;5051840;28;20112;-75
2022/12/04 09:16:15;;;;;;;60.22;26.20;;;;;;;-0.24;100.00;101334.31;5046738;28;20037;-73
2022/12/04 09:18:42;;;;;;;58.78;26.83;;;;;;;-0.22;100.00;101345.53;5041844;28;20048;-73
2022/12/04 09:21:11;;;;;;;61.60;28.48;;;;;;;-0.20;100.00;101349.06;5052233;28;20411;-75
2022/12/04 09:23:39;;;;;;;57.63;27.48;;;;;;;-0.21;100.00;101345.63;5065630;28;20111;-74
2022/12/04 09:26:21;;;;;;;53.22;25.77;;;;;;;-0.24;100.00;101345.47;5046991;28;20127;-73
2022/12/04 09:28:49;;;;;;;50.05;24.55;;;;;;;-0.22;100.00;101348.09;5048299;28;20045;-74
2022/12/04 09:31:17;;;;;;;61.45;29.20;;;;;;;-0.23;100.00;101354.09;5074122;28;20483;-76
2022/12/04 09:33:45;;;;;;;62.10;27.42;;;;;;;-0.24;100.00;101354.88;5047447;28;20044;-74
2022/12/04 09:36:15;;;;;;;58.53;27.48;;;;;;;-0.24;100.00;101349.75;5051436;28;20046;-73
2022/12/04 09:38:44;;;;;;;53.15;27.23;;;;;;;-0.22;100.00;101348.09;5044473;28;20048;-74
2022/12/04 09:41:53;;;;;;;63.80;28.48;;;;;;;-0.21;100.00;101344.72;5057464;28;20387;-72
2022/12/04 09:44:39;;;;;;;59.20;25.42;;;;;;;-0.22;100.00;101351.56;5064903;28;20041;-75
2022/12/04 09:47:31;;;;;;;56.70;26.23;;;;;;;-0.22;100.00;101345.53;5040486;28;20041;-75
2022/12/04 09:50:20;;;;;;;66.43;26.80;;;;;;;-0.21;100.00;101348.19;5050298;28;20102;-76
2022/12/04 09:53:14;;;;;;;60.95;27.83;;;;;;;-0.20;100.00;101343.91;5065081;28;20063;-74
2022/12/04 09:56:00;;;;;;;60.67;28.45;;;;;;;-0.20;100.00;101342.22;5060928;28;20041;-73
2022/12/04 09:58:42;;;;;;;60.88;26.13;;;;;;;-0.17;100.00;101342.38;5054371;28;20052;-74
2022/12/04 10:01:22;;;;;;;58.40;28.75;;;;;;;-0.13;100.00;101345.97;5049179;28;20159;-75
2022/12/04 10:03:49;;;;;;;55.50;26.90;;;;;;;-0.12;100.00;101342.56;5040894;28;20179;-73
2022/12/04 10:06:54;;;;;;;54.05;27.73;;;;;;;-0.10;100.00;101329.81;5039867;28;20110;-75
2022/12/04 10:09:31;;;;;;;61.67;29.77;;;;;;;-0.11;100.00;101328.91;5043389;28;20519;-77
2022/12/04 10:12:48;;;;;;;54.60;27.60;;;;;;;-0.09;100.00;101337.59;5045802;28;20099;-77
2022/12/04 10:15:52;;;;;;;60.20;28.45;;;;;;;-0.09;100.00;101336.69;5040095;28;20048;-74
2022/12/04 10:18:54;;;;;;;77.25;36.28;;;;;;;-0.08;100.00;101338.44;5043785;28;20102;-74
2022/12/04 10:21:58;;;;;;;59.00;28.50;;;;;;;-0.10;100.00;101333.25;5061577;28;20044;-74
2022/12/04 10:24:57;;;;;;;66.45;29.13;;;;;;;-0.09;100.00;101328.97;5048435;28;20055;-73
2022/12/04 10:27:56;;;;;;;57.42;27.52;;;;;;;-0.07;100.00;101327.34;5046672;28;20088;-74
2022/12/04 10:30:29;;;;;;;59.83;27.02;;;;;;;-0.05;100.00;101325.75;5045581;28;20047;-73
2022/12/04 10:33:18;;;;;;;52.33;27.17;;;;;;;-0.04;100.00;101315.50;5040509;28;20079;-74
2022/12/04 10:35:48;;;;;;;59.33;26.60;;;;;;;-0.02;100.00;101315.56;5071292;28;20051;-76
2022/12/04 10:38:40;;;;;;;55.55;27.73;;;;;;;-0.03;100.00;101322.44;5049750;28;20045;-76
2022/12/04 10:41:25;;;;;;;55.33;26.52;;;;;;;-0.06;100.00;101317.13;5064728;28;20898;-74
2022/12/04 10:43:52;;;;;;;51.90;25.40;;;;;;;-0.06;100.00;101311.09;5044072;28;20816;-73
2022/12/04 10:46:25;;;;;;;64.53;27.45;;;;;;;-0.07;100.00;101307.63;5065181;28;20152;-74
2022/12/04 10:49:23;;;;;;;57.83;25.95;;;;;;;-0.06;100.00;101318.81;5061981;28;20165;-73
2022/12/04 10:51:50;;;;;;;57.40;27.48;;;;;;;-0.07;100.00;101327.34;5062291;28;20053;-75
2022/12/04 10:54:39;;;;;;;61.33;27.15;;;;;;;-0.06;100.00;101323.97;5069281;28;20044;-74
2022/12/04 10:57:09;;;;;;;60.50;25.40;;;;;;;-0.05;100.00;101318.03;5048798;28;20115;-73
2022/12/04 10:59:48;;;;;;;59.75;25.98;;;;;;;-0.01;100.00;101318.22;5059104;28;20037;-73
2022/12/04 11:02:22;;;;;;;62.88;25.92;;;;;;;0.02;100.00;101320.03;5056664;28;20097;-74
2022/12/04 11:05:02;;;;;;;58.22;25.67;;;;;;;0.02;100.00;101321.75;5051380;28;20045;-75
2022/12/04 11:07:42;;;;;;;59.25;27.88;;;;;;;0.04;100.00;101312.38;5059227;28;20037;-73
2022/12/04 11:10:39;;;;;;;59.25;28.70;;;;;;;0.06;100.00;101318.50;5048658;28;20036;-73
2022/12/04 11:13:16;;;;;;;56.25;26.73;;;;;;;0.05;100.00;101309.88;5052082;28;20033;-73
2022/12/04 11:15:46;;;;;;;52.50;26.95;;;;;;;0.06;100.00;101305.63;5050912;28;20055;-73
2022/12/04 11:18:28;;;;;;;63.00;29.60;;;;;;;0.11;100.00;101301.56;5051948;28;20044;-75
2022/12/04 11:21:06;;;;;;;59.67;28.88;;;;;;;0.09;100.00;101295.44;5075842;28;20044;-74
2022/12/04 11:23:43;;;;;;;59.20;27.27;;;;;;;0.10;100.00;101287.78;5046942;28;20040;-75
2022/12/04 11:26:11;;;;;;;53.10;27.35;;;;;;;0.10;100.00;101289.50;5052003;28;20131;-72
2022/12/04 11:28:43;;;;;;;58.38;28.25;;;;;;;0.13;100.00;101292.19;5047023;28;20127;-73
2022/12/04 11:31:18;;;;;;;58.42;26.30;;;;;;;0.16;100.00;101290.63;5047971;28;20419;-73
2022/12/04 11:33:50;;;;;;;53.40;24.83;;;;;;;0.18;100.00;101288.13;5030717;28;20041;-75
2022/12/04 11:36:23;;;;;;;53.80;28.75;;;;;;;0.16;100.00;101280.34;5040359;28;20399;-75
2022/12/04 11:38:51;;;;;;;56.13;24.63;;;;;;;0.16;100.00;101280.34;5051971;28;20493;-74
2022/12/04 11:41:29;;;;;;;53.20;27.38;;;;;;;0.15;100.00;101273.41;5051938;28;20050;-74
2022/12/04 11:43:56;;;;;;;56.88;26.08;;;;;;;0.14;100.00;101275.94;5047431;28;20052;-75